sensor_id;sensor_type;location;lat;lon;timestamp;temperature;humidity
40153;DHT22;26371;56.992;23.912;2023-05-02T00:00:18;7.10;99.90
40153;DHT22;26371;56.992;23.912;2023-05-02T00:02:48;7.10;99.90
40153;DHT22;26371;56.992;23.912;2023-05-02T00:05:16;7.10;99.90
40153;DHT22;26371;56.992;23.912;2023-05-02T00:07:45;7.00;99.90
40153;DHT22;26371;56.992;23.912;2023-05-02T00:10:13;6.80;99.90
40153;DHT22;26371;56.992;23.912;2023-05-02T00:12:42;6.80;99.90
40153;DHT22;26371;56.992;23.912;2023-05-02T00:15:10;6.80;99.90
40153;DHT22;26371;56.992;23.912;2023-05-02T00:17:39;6.80;99.90
40153;DHT22;26371;56.992;23.912;2023-05-02T00:20:09;6.80;99.90
40153;DHT22;26371;56.992;23.912;2023-05-02T00:22:37;6.80;99.90
40153;DHT22;26371;56.992;23.912;2023-05-02T00:25:06;6.80;99.90
40153;DHT22;26371;56.992;23.912;2023-05-02T00:27:35;6.80;99.90
40153;DHT22;26371;56.992;23.912;2023-05-02T00:30:03;6.80;99.90
40153;DHT22;26371;56.992;23.912;2023-05-02T00:32:32;6.80;99.90
40153;DHT22;26371;56.992;23.912;2023-05-02T00:35:01;6.80;99.90
40153;DHT22;26371;56.992;23.912;2023-05-02T00:37:31;6.80;99.90
40153;DHT22;26371;56.992;23.912;2023-05-02T00:39:59;6.80;99.90
40153;DHT22;26371;56.992;23.912;2023-05-02T00:42:28;6.80;99.90
40153;DHT22;26371;56.992;23.912;2023-05-02T00:44:57;6.70;99.90
40153;DHT22;26371;56.992;23.912;2023-05-02T00:47:25;6.70;99.90
40153;DHT22;26371;56.992;23.912;2023-05-02T00:49:54;6.80;99.90
40153;DHT22;26371;56.992;23.912;2023-05-02T00:52:22;6.80;99.90
40153;DHT22;26371;56.992;23.912;2023-05-02T00:54:52;6.80;99.90
40153;DHT22;26371;56.992;23.912;2023-05-02T00:57:21;6.80;99.90
40153;DHT22;26371;56.992;23.912;2023-05-02T00:59:49;6.80;99.90
40153;DHT22;26371;56.992;23.912;2023-05-02T01:02:21;6.80;99.90
40153;DHT22;26371;56.992;23.912;2023-05-02T01:04:55;6.80;99.90
40153;DHT22;26371;56.992;23.912;2023-05-02T01:07:33;6.80;99.90
40153;DHT22;26371;56.992;23.912;2023-05-02T01:10:08;6.80;99.90
40153;DHT22;26371;56.992;23.912;2023-05-02T01:12:40;6.80;99.90
40153;DHT22;26371;56.992;23.912;2023-05-02T01:15:10;6.80;99.90
40153;DHT22;26371;56.992;23.912;2023-05-02T01:17:39;6.80;99.90
40153;DHT22;26371;56.992;23.912;2023-05-02T01:20:10;6.80;99.90
40153;DHT22;26371;56.992;23.912;2023-05-02T01:22:39;6.80;99.90
40153;DHT22;26371;56.992;23.912;2023-05-02T01:25:12;6.90;99.90
40153;DHT22;26371;56.992;23.912;2023-05-02T01:27:46;6.90;99.90
40153;DHT22;26371;56.992;23.912;2023-05-02T01:30:19;6.90;99.90
40153;DHT22;26371;56.992;23.912;2023-05-02T01:32:48;6.90;99.90
40153;DHT22;26371;56.992;23.912;2023-05-02T01:35:19;6.90;99.90
40153;DHT22;26371;56.992;23.912;2023-05-02T01:37:48;6.90;99.90
40153;DHT22;26371;56.992;23.912;2023-05-02T01:40:17;6.90;99.90
40153;DHT22;26371;56.992;23.912;2023-05-02T01:42:46;7.00;99.90
40153;DHT22;26371;56.992;23.912;2023-05-02T01:45:15;7.00;99.90
40153;DHT22;26371;56.992;23.912;2023-05-02T01:47:45;7.00;99.90
40153;DHT22;26371;56.992;23.912;2023-05-02T01:50:15;7.00;99.90
40153;DHT22;26371;56.992;23.912;2023-05-02T01:52:44;7.00;99.90
40153;DHT22;26371;56.992;23.912;2023-05-02T01:55:14;7.00;99.90
40153;DHT22;26371;56.992;23.912;2023-05-02T01:57:45;7.00;99.90
40153;DHT22;26371;56.992;23.912;2023-05-02T02:00:14;7.00;99.90
40153;DHT22;26371;56.992;23.912;2023-05-02T02:02:43;7.00;99.90
40153;DHT22;26371;56.992;23.912;2023-05-02T02:05:14;7.00;99.90
40153;DHT22;26371;56.992;23.912;2023-05-02T02:07:43;7.00;99.90
40153;DHT22;26371;56.992;23.912;2023-05-02T02:10:12;7.00;99.90
40153;DHT22;26371;56.992;23.912;2023-05-02T02:12:41;7.00;99.90
40153;DHT22;26371;56.992;23.912;2023-05-02T02:15:12;7.00;99.90
40153;DHT22;26371;56.992;23.912;2023-05-02T02:17:45;7.00;99.90
40153;DHT22;26371;56.992;23.912;2023-05-02T02:20:16;7.00;99.90
40153;DHT22;26371;56.992;23.912;2023-05-02T02:22:46;7.10;99.90
40153;DHT22;26371;56.992;23.912;2023-05-02T02:25:15;7.10;99.90
40153;DHT22;26371;56.992;23.912;2023-05-02T02:27:44;7.10;99.90
40153;DHT22;26371;56.992;23.912;2023-05-02T02:30:12;7.20;99.90
40153;DHT22;26371;56.992;23.912;2023-05-02T02:32:42;7.20;99.90
40153;DHT22;26371;56.992;23.912;2023-05-02T02:35:10;7.10;99.90
40153;DHT22;26371;56.992;23.912;2023-05-02T02:37:46;7.20;99.90
40153;DHT22;26371;56.992;23.912;2023-05-02T02:40:16;7.20;99.90
40153;DHT22;26371;56.992;23.912;2023-05-02T02:42:48;7.20;99.90
40153;DHT22;26371;56.992;23.912;2023-05-02T02:45:21;7.20;99.90
40153;DHT22;26371;56.992;23.912;2023-05-02T02:47:54;7.20;99.90
40153;DHT22;26371;56.992;23.912;2023-05-02T02:50:26;7.20;99.90
40153;DHT22;26371;56.992;23.912;2023-05-02T02:52:59;7.20;99.90
40153;DHT22;26371;56.992;23.912;2023-05-02T02:55:31;7.30;99.90
40153;DHT22;26371;56.992;23.912;2023-05-02T02:58:06;7.20;99.90
40153;DHT22;26371;56.992;23.912;2023-05-02T03:00:37;7.30;99.90
40153;DHT22;26371;56.992;23.912;2023-05-02T03:03:06;7.30;99.90
40153;DHT22;26371;56.992;23.912;2023-05-02T03:05:35;7.30;99.90
40153;DHT22;26371;56.992;23.912;2023-05-02T03:08:05;7.30;99.90
40153;DHT22;26371;56.992;23.912;2023-05-02T03:10:34;7.30;99.90
40153;DHT22;26371;56.992;23.912;2023-05-02T03:13:02;7.20;99.90
40153;DHT22;26371;56.992;23.912;2023-05-02T03:18:22;7.20;99.90
40153;DHT22;26371;56.992;23.912;2023-05-02T03:20:51;7.20;99.90
40153;DHT22;26371;56.992;23.912;2023-05-02T03:23:21;7.30;99.90
40153;DHT22;26371;56.992;23.912;2023-05-02T03:25:52;7.30;99.90
40153;DHT22;26371;56.992;23.912;2023-05-02T03:28:23;7.40;99.90
40153;DHT22;26371;56.992;23.912;2023-05-02T03:30:52;7.40;99.90
40153;DHT22;26371;56.992;23.912;2023-05-02T03:33:21;7.50;99.90
40153;DHT22;26371;56.992;23.912;2023-05-02T03:35:50;7.50;99.90
40153;DHT22;26371;56.992;23.912;2023-05-02T03:38:20;7.60;99.90
40153;DHT22;26371;56.992;23.912;2023-05-02T03:40:50;7.60;99.90
40153;DHT22;26371;56.992;23.912;2023-05-02T03:43:18;7.70;99.90
40153;DHT22;26371;56.992;23.912;2023-05-02T03:45:46;7.80;99.90
40153;DHT22;26371;56.992;23.912;2023-05-02T03:48:15;7.80;99.80
40153;DHT22;26371;56.992;23.912;2023-05-02T03:50:44;7.90;99.90
40153;DHT22;26371;56.992;23.912;2023-05-02T03:53:12;8.00;99.90
40153;DHT22;26371;56.992;23.912;2023-05-02T03:55:51;8.00;99.90
40153;DHT22;26371;56.992;23.912;2023-05-02T03:58:28;8.10;99.50
40153;DHT22;26371;56.992;23.912;2023-05-02T04:00:56;8.10;99.60
40153;DHT22;26371;56.992;23.912;2023-05-02T04:05:56;8.20;99.20
40153;DHT22;26371;56.992;23.912;2023-05-02T04:08:25;8.30;99.30
40153;DHT22;26371;56.992;23.912;2023-05-02T04:10:55;8.20;98.90
40153;DHT22;26371;56.992;23.912;2023-05-02T04:13:23;8.50;99.20
40153;DHT22;26371;56.992;23.912;2023-05-02T04:15:52;8.50;99.10
40153;DHT22;26371;56.992;23.912;2023-05-02T04:18:22;8.60;99.20
40153;DHT22;26371;56.992;23.912;2023-05-02T04:20:51;8.60;99.20
40153;DHT22;26371;56.992;23.912;2023-05-02T04:23:22;8.70;99.00
40153;DHT22;26371;56.992;23.912;2023-05-02T04:25:57;8.70;98.80
40153;DHT22;26371;56.992;23.912;2023-05-02T04:28:35;8.70;99.00
40153;DHT22;26371;56.992;23.912;2023-05-02T04:31:03;8.80;98.90
40153;DHT22;26371;56.992;23.912;2023-05-02T04:33:32;8.80;99.00
40153;DHT22;26371;56.992;23.912;2023-05-02T04:36:01;8.90;98.90
40153;DHT22;26371;56.992;23.912;2023-05-02T04:38:32;8.90;98.70
40153;DHT22;26371;56.992;23.912;2023-05-02T04:41:02;9.00;98.70
40153;DHT22;26371;56.992;23.912;2023-05-02T04:43:40;9.00;98.60
40153;DHT22;26371;56.992;23.912;2023-05-02T04:46:09;9.00;98.40
40153;DHT22;26371;56.992;23.912;2023-05-02T04:48:38;9.10;98.40
40153;DHT22;26371;56.992;23.912;2023-05-02T04:51:08;9.10;98.30
40153;DHT22;26371;56.992;23.912;2023-05-02T04:53:37;9.10;98.30
40153;DHT22;26371;56.992;23.912;2023-05-02T04:56:07;9.10;98.60
40153;DHT22;26371;56.992;23.912;2023-05-02T04:58:36;9.10;98.20
40153;DHT22;26371;56.992;23.912;2023-05-02T05:01:08;9.10;98.50
40153;DHT22;26371;56.992;23.912;2023-05-02T05:03:36;9.20;98.50
40153;DHT22;26371;56.992;23.912;2023-05-02T05:06:06;9.20;98.40
40153;DHT22;26371;56.992;23.912;2023-05-02T05:08:35;9.30;98.50
40153;DHT22;26371;56.992;23.912;2023-05-02T05:11:03;9.30;98.60
40153;DHT22;26371;56.992;23.912;2023-05-02T05:13:35;9.40;98.70
40153;DHT22;26371;56.992;23.912;2023-05-02T05:16:05;9.50;98.80
40153;DHT22;26371;56.992;23.912;2023-05-02T05:18:33;9.50;98.30
40153;DHT22;26371;56.992;23.912;2023-05-02T05:21:09;9.50;98.10
40153;DHT22;26371;56.992;23.912;2023-05-02T05:23:38;9.60;98.30
40153;DHT22;26371;56.992;23.912;2023-05-02T05:26:15;9.70;98.10
40153;DHT22;26371;56.992;23.912;2023-05-02T05:28:48;9.80;97.70
40153;DHT22;26371;56.992;23.912;2023-05-02T05:31:19;9.80;97.50
40153;DHT22;26371;56.992;23.912;2023-05-02T05:33:53;9.90;97.70
40153;DHT22;26371;56.992;23.912;2023-05-02T05:36:24;9.90;97.80
40153;DHT22;26371;56.992;23.912;2023-05-02T05:38:52;10.00;98.10
40153;DHT22;26371;56.992;23.912;2023-05-02T05:41:21;10.10;97.90
40153;DHT22;26371;56.992;23.912;2023-05-02T05:43:59;10.20;97.70
40153;DHT22;26371;56.992;23.912;2023-05-02T05:46:28;10.30;97.70
40153;DHT22;26371;56.992;23.912;2023-05-02T05:48:58;10.40;97.40
40153;DHT22;26371;56.992;23.912;2023-05-02T05:51:28;10.40;97.10
40153;DHT22;26371;56.992;23.912;2023-05-02T05:53:58;10.60;97.20
40153;DHT22;26371;56.992;23.912;2023-05-02T05:56:27;10.70;97.20
40153;DHT22;26371;56.992;23.912;2023-05-02T05:59:07;10.80;97.00
40153;DHT22;26371;56.992;23.912;2023-05-02T06:01:36;10.90;96.80
40153;DHT22;26371;56.992;23.912;2023-05-02T06:04:05;11.00;96.70
40153;DHT22;26371;56.992;23.912;2023-05-02T06:06:38;11.10;97.00
40153;DHT22;26371;56.992;23.912;2023-05-02T06:09:07;11.20;97.00
40153;DHT22;26371;56.992;23.912;2023-05-02T06:11:36;11.30;96.70
40153;DHT22;26371;56.992;23.912;2023-05-02T06:16:38;11.30;99.90
40153;DHT22;26371;56.992;23.912;2023-05-02T06:19:07;11.60;96.30
40153;DHT22;26371;56.992;23.912;2023-05-02T06:21:38;11.60;96.10
40153;DHT22;26371;56.992;23.912;2023-05-02T06:24:06;11.70;95.80
40153;DHT22;26371;56.992;23.912;2023-05-02T06:26:34;11.70;96.20
40153;DHT22;26371;56.992;23.912;2023-05-02T06:29:03;11.80;95.80
40153;DHT22;26371;56.992;23.912;2023-05-02T06:31:31;11.90;95.70
40153;DHT22;26371;56.992;23.912;2023-05-02T06:34:01;12.00;95.60
40153;DHT22;26371;56.992;23.912;2023-05-02T06:36:29;12.20;98.30
40153;DHT22;26371;56.992;23.912;2023-05-02T06:38:58;12.10;99.10
40153;DHT22;26371;56.992;23.912;2023-05-02T06:41:26;12.20;99.90
40153;DHT22;26371;56.992;23.912;2023-05-02T06:43:56;12.10;95.90
40153;DHT22;26371;56.992;23.912;2023-05-02T06:46:27;12.10;96.10
40153;DHT22;26371;56.992;23.912;2023-05-02T06:48:56;12.20;95.90
40153;DHT22;26371;56.992;23.912;2023-05-02T06:51:25;12.20;95.70
40153;DHT22;26371;56.992;23.912;2023-05-02T06:53:54;12.20;95.70
40153;DHT22;26371;56.992;23.912;2023-05-02T06:56:22;12.30;95.50
40153;DHT22;26371;56.992;23.912;2023-05-02T06:58:51;12.30;95.10
40153;DHT22;26371;56.992;23.912;2023-05-02T07:01:19;12.40;95.70
40153;DHT22;26371;56.992;23.912;2023-05-02T07:03:48;12.50;95.30
40153;DHT22;26371;56.992;23.912;2023-05-02T07:06:16;12.50;95.40
40153;DHT22;26371;56.992;23.912;2023-05-02T07:08:46;12.50;95.20
40153;DHT22;26371;56.992;23.912;2023-05-02T07:11:15;12.60;94.50
40153;DHT22;26371;56.992;23.912;2023-05-02T07:13:43;12.60;94.80
40153;DHT22;26371;56.992;23.912;2023-05-02T07:16:12;12.70;94.10
40153;DHT22;26371;56.992;23.912;2023-05-02T07:18:41;12.70;94.40
40153;DHT22;26371;56.992;23.912;2023-05-02T07:21:11;12.70;94.10
40153;DHT22;26371;56.992;23.912;2023-05-02T07:23:40;12.80;94.50
40153;DHT22;26371;56.992;23.912;2023-05-02T07:26:10;12.90;95.20
40153;DHT22;26371;56.992;23.912;2023-05-02T07:28:38;13.00;95.20
40153;DHT22;26371;56.992;23.912;2023-05-02T07:31:06;13.10;95.20
40153;DHT22;26371;56.992;23.912;2023-05-02T07:33:35;13.20;94.90
40153;DHT22;26371;56.992;23.912;2023-05-02T07:36:03;13.20;94.10
40153;DHT22;26371;56.992;23.912;2023-05-02T07:38:32;13.30;94.60
40153;DHT22;26371;56.992;23.912;2023-05-02T07:41:00;13.30;94.40
40153;DHT22;26371;56.992;23.912;2023-05-02T07:43:30;13.40;94.30
40153;DHT22;26371;56.992;23.912;2023-05-02T07:46:02;13.50;94.40
40153;DHT22;26371;56.992;23.912;2023-05-02T07:48:30;13.50;93.90
40153;DHT22;26371;56.992;23.912;2023-05-02T07:51:04;13.60;94.10
40153;DHT22;26371;56.992;23.912;2023-05-02T07:53:33;13.60;94.00
40153;DHT22;26371;56.992;23.912;2023-05-02T07:56:02;13.70;94.50
40153;DHT22;26371;56.992;23.912;2023-05-02T07:58:32;13.80;94.00
40153;DHT22;26371;56.992;23.912;2023-05-02T08:01:00;14.00;94.50
40153;DHT22;26371;56.992;23.912;2023-05-02T08:03:28;14.00;93.90
40153;DHT22;26371;56.992;23.912;2023-05-02T08:05:57;14.00;93.20
40153;DHT22;26371;56.992;23.912;2023-05-02T08:08:25;14.00;93.50
40153;DHT22;26371;56.992;23.912;2023-05-02T08:10:54;14.00;93.80
40153;DHT22;26371;56.992;23.912;2023-05-02T08:13:22;14.10;93.70
40153;DHT22;26371;56.992;23.912;2023-05-02T08:15:52;14.20;93.80
40153;DHT22;26371;56.992;23.912;2023-05-02T08:18:24;14.20;93.80
40153;DHT22;26371;56.992;23.912;2023-05-02T08:20:53;14.20;93.60
40153;DHT22;26371;56.992;23.912;2023-05-02T08:23:22;14.40;93.90
40153;DHT22;26371;56.992;23.912;2023-05-02T08:25:51;14.50;93.70
40153;DHT22;26371;56.992;23.912;2023-05-02T08:28:19;14.60;93.60
40153;DHT22;26371;56.992;23.912;2023-05-02T08:30:47;14.80;93.70
40153;DHT22;26371;56.992;23.912;2023-05-02T08:33:17;14.80;93.60
40153;DHT22;26371;56.992;23.912;2023-05-02T08:35:46;14.90;95.10
40153;DHT22;26371;56.992;23.912;2023-05-02T08:38:14;15.10;97.60
40153;DHT22;26371;56.992;23.912;2023-05-02T08:40:43;14.90;93.30
40153;DHT22;26371;56.992;23.912;2023-05-02T08:43:11;15.20;93.50
40153;DHT22;26371;56.992;23.912;2023-05-02T08:53:09;16.10;99.90
40153;DHT22;26371;56.992;23.912;2023-05-02T08:55:38;16.20;99.40
40153;DHT22;26371;56.992;23.912;2023-05-02T08:58:07;16.20;98.00
40153;DHT22;26371;56.992;23.912;2023-05-02T09:00:37;16.20;96.90
40153;DHT22;26371;56.992;23.912;2023-05-02T09:03:06;16.30;99.90
40153;DHT22;26371;56.992;23.912;2023-05-02T09:05:38;16.40;99.30
40153;DHT22;26371;56.992;23.912;2023-05-02T09:08:08;16.50;99.30
40153;DHT22;26371;56.992;23.912;2023-05-02T09:10:37;16.40;99.00
40153;DHT22;26371;56.992;23.912;2023-05-02T09:15:55;16.20;98.80
40153;DHT22;26371;56.992;23.912;2023-05-02T09:18:27;16.20;98.90
40153;DHT22;26371;56.992;23.912;2023-05-02T09:20:56;16.30;99.20
40153;DHT22;26371;56.992;23.912;2023-05-02T09:23:33;16.60;99.90
40153;DHT22;26371;56.992;23.912;2023-05-02T09:28:37;16.60;99.90
40153;DHT22;26371;56.992;23.912;2023-05-02T09:31:06;16.80;99.40
40153;DHT22;26371;56.992;23.912;2023-05-02T09:33:35;16.80;99.90
40153;DHT22;26371;56.992;23.912;2023-05-02T09:36:04;16.70;99.90
40153;DHT22;26371;56.992;23.912;2023-05-02T09:38:34;16.70;99.50
40153;DHT22;26371;56.992;23.912;2023-05-02T09:41:03;16.70;99.90
40153;DHT22;26371;56.992;23.912;2023-05-02T09:43:31;16.80;99.90
40153;DHT22;26371;56.992;23.912;2023-05-02T09:46:00;17.00;97.50
40153;DHT22;26371;56.992;23.912;2023-05-02T09:48:31;17.20;96.80
40153;DHT22;26371;56.992;23.912;2023-05-02T09:50:59;17.20;91.10
40153;DHT22;26371;56.992;23.912;2023-05-02T09:53:28;17.50;91.00
40153;DHT22;26371;56.992;23.912;2023-05-02T09:56:02;17.80;90.00
40153;DHT22;26371;56.992;23.912;2023-05-02T09:58:30;17.90;90.40
40153;DHT22;26371;56.992;23.912;2023-05-02T10:00:58;18.00;90.50
40153;DHT22;26371;56.992;23.912;2023-05-02T10:03:28;18.20;90.50
40153;DHT22;26371;56.992;23.912;2023-05-02T10:05:57;18.20;90.40
40153;DHT22;26371;56.992;23.912;2023-05-02T10:08:27;18.00;89.60
40153;DHT22;26371;56.992;23.912;2023-05-02T10:10:56;17.90;89.60
40153;DHT22;26371;56.992;23.912;2023-05-02T10:13:26;17.80;90.00
40153;DHT22;26371;56.992;23.912;2023-05-02T10:15:58;17.50;90.20
40153;DHT22;26371;56.992;23.912;2023-05-02T10:18:28;17.40;90.10
40153;DHT22;26371;56.992;23.912;2023-05-02T10:20:59;17.40;89.50
40153;DHT22;26371;56.992;23.912;2023-05-02T10:23:28;17.40;89.00
40153;DHT22;26371;56.992;23.912;2023-05-02T10:25:57;17.40;89.00
40153;DHT22;26371;56.992;23.912;2023-05-02T10:28:28;17.20;89.10
40153;DHT22;26371;56.992;23.912;2023-05-02T10:30:57;17.10;90.00
40153;DHT22;26371;56.992;23.912;2023-05-02T10:33:25;17.20;90.20
40153;DHT22;26371;56.992;23.912;2023-05-02T10:35:54;17.00;89.80
40153;DHT22;26371;56.992;23.912;2023-05-02T10:38:22;17.00;90.10
40153;DHT22;26371;56.992;23.912;2023-05-02T10:40:52;16.90;90.00
40153;DHT22;26371;56.992;23.912;2023-05-02T10:43:23;16.80;90.70
40153;DHT22;26371;56.992;23.912;2023-05-02T10:45:54;16.80;90.80
40153;DHT22;26371;56.992;23.912;2023-05-02T10:48:23;16.70;90.20
40153;DHT22;26371;56.992;23.912;2023-05-02T10:50:53;16.60;90.50
40153;DHT22;26371;56.992;23.912;2023-05-02T10:53:22;16.50;90.10
40153;DHT22;26371;56.992;23.912;2023-05-02T10:56:06;16.50;90.60
40153;DHT22;26371;56.992;23.912;2023-05-02T10:58:35;16.40;90.10
40153;DHT22;26371;56.992;23.912;2023-05-02T11:03:55;16.40;89.80
40153;DHT22;26371;56.992;23.912;2023-05-02T11:06:24;16.30;90.30
40153;DHT22;26371;56.992;23.912;2023-05-02T11:09:03;16.30;89.80
40153;DHT22;26371;56.992;23.912;2023-05-02T11:11:51;16.30;90.10
40153;DHT22;26371;56.992;23.912;2023-05-02T11:14:42;16.30;89.70
40153;DHT22;26371;56.992;23.912;2023-05-02T11:17:13;16.20;89.90
40153;DHT22;26371;56.992;23.912;2023-05-02T11:22:31;16.10;90.30
40153;DHT22;26371;56.992;23.912;2023-05-02T11:24:59;16.10;90.70
40153;DHT22;26371;56.992;23.912;2023-05-02T11:27:37;16.10;90.80
40153;DHT22;26371;56.992;23.912;2023-05-02T11:30:07;16.10;90.60
40153;DHT22;26371;56.992;23.912;2023-05-02T11:35:25;16.00;90.50
40153;DHT22;26371;56.992;23.912;2023-05-02T11:37:55;16.00;90.10
40153;DHT22;26371;56.992;23.912;2023-05-02T11:40:23;16.00;89.80
40153;DHT22;26371;56.992;23.912;2023-05-02T11:42:52;16.00;90.00
40153;DHT22;26371;56.992;23.912;2023-05-02T11:45:21;15.90;90.10
40153;DHT22;26371;56.992;23.912;2023-05-02T11:47:49;16.00;90.40
40153;DHT22;26371;56.992;23.912;2023-05-02T11:50:18;16.00;90.30
40153;DHT22;26371;56.992;23.912;2023-05-02T11:52:46;16.10;90.00
40153;DHT22;26371;56.992;23.912;2023-05-02T11:55:16;16.10;90.30
40153;DHT22;26371;56.992;23.912;2023-05-02T11:57:45;16.10;90.10
40153;DHT22;26371;56.992;23.912;2023-05-02T12:00:13;16.10;90.10
40153;DHT22;26371;56.992;23.912;2023-05-02T12:02:42;16.20;89.90
40153;DHT22;26371;56.992;23.912;2023-05-02T12:05:12;16.20;89.90
40153;DHT22;26371;56.992;23.912;2023-05-02T12:07:42;16.30;89.60
40153;DHT22;26371;56.992;23.912;2023-05-02T12:10:11;16.30;90.00
40153;DHT22;26371;56.992;23.912;2023-05-02T12:12:42;16.30;90.10
40153;DHT22;26371;56.992;23.912;2023-05-02T12:15:11;16.20;88.90
40153;DHT22;26371;56.992;23.912;2023-05-02T12:17:39;16.20;87.90
40153;DHT22;26371;56.992;23.912;2023-05-02T12:20:09;16.10;88.60
40153;DHT22;26371;56.992;23.912;2023-05-02T12:22:38;16.00;88.40
40153;DHT22;26371;56.992;23.912;2023-05-02T12:25:07;15.90;88.80
40153;DHT22;26371;56.992;23.912;2023-05-02T12:27:35;15.90;89.40
40153;DHT22;26371;56.992;23.912;2023-05-02T12:30:06;15.80;91.90
40153;DHT22;26371;56.992;23.912;2023-05-02T12:35:03;14.50;98.90
40153;DHT22;26371;56.992;23.912;2023-05-02T12:37:32;13.40;98.20
40153;DHT22;26371;56.992;23.912;2023-05-02T12:40:01;13.20;99.30
40153;DHT22;26371;56.992;23.912;2023-05-02T12:42:30;12.80;99.90
40153;DHT22;26371;56.992;23.912;2023-05-02T12:45:00;12.60;99.90
40153;DHT22;26371;56.992;23.912;2023-05-02T12:47:30;12.30;99.90
40153;DHT22;26371;56.992;23.912;2023-05-02T12:50:11;12.10;99.90
40153;DHT22;26371;56.992;23.912;2023-05-02T12:52:46;12.00;99.90
40153;DHT22;26371;56.992;23.912;2023-05-02T12:57:43;11.80;99.90
40153;DHT22;26371;56.992;23.912;2023-05-02T13:00:12;11.60;99.90
40153;DHT22;26371;56.992;23.912;2023-05-02T13:02:42;11.50;99.90
40153;DHT22;26371;56.992;23.912;2023-05-02T13:05:13;11.50;99.90
40153;DHT22;26371;56.992;23.912;2023-05-02T13:07:42;11.30;99.90
40153;DHT22;26371;56.992;23.912;2023-05-02T13:10:10;11.10;99.90
40153;DHT22;26371;56.992;23.912;2023-05-02T13:12:39;10.90;99.90
40153;DHT22;26371;56.992;23.912;2023-05-02T13:15:09;10.70;99.90
40153;DHT22;26371;56.992;23.912;2023-05-02T13:17:37;10.60;99.90
40153;DHT22;26371;56.992;23.912;2023-05-02T13:20:07;10.50;99.90
40153;DHT22;26371;56.992;23.912;2023-05-02T13:22:36;10.40;99.90
40153;DHT22;26371;56.992;23.912;2023-05-02T13:25:05;10.20;99.90
40153;DHT22;26371;56.992;23.912;2023-05-02T13:27:34;10.10;99.90
40153;DHT22;26371;56.992;23.912;2023-05-02T13:32:34;9.80;99.90
40153;DHT22;26371;56.992;23.912;2023-05-02T13:35:03;9.80;99.90
40153;DHT22;26371;56.992;23.912;2023-05-02T13:37:33;9.70;99.90
40153;DHT22;26371;56.992;23.912;2023-05-02T13:40:01;9.60;99.90
40153;DHT22;26371;56.992;23.912;2023-05-02T13:42:31;9.60;99.90
40153;DHT22;26371;56.992;23.912;2023-05-02T13:44:59;9.60;99.90
40153;DHT22;26371;56.992;23.912;2023-05-02T13:47:30;9.60;99.90
40153;DHT22;26371;56.992;23.912;2023-05-02T13:49:58;9.60;99.90
40153;DHT22;26371;56.992;23.912;2023-05-02T13:52:27;9.60;99.90
40153;DHT22;26371;56.992;23.912;2023-05-02T13:54:57;9.60;99.90
40153;DHT22;26371;56.992;23.912;2023-05-02T13:57:25;9.50;99.90
40153;DHT22;26371;56.992;23.912;2023-05-02T13:59:53;9.60;99.90
40153;DHT22;26371;56.992;23.912;2023-05-02T14:02:22;9.50;99.90
40153;DHT22;26371;56.992;23.912;2023-05-02T14:04:50;9.50;99.90
40153;DHT22;26371;56.992;23.912;2023-05-02T14:07:18;9.40;99.90
40153;DHT22;26371;56.992;23.912;2023-05-02T14:09:47;9.40;99.90
40153;DHT22;26371;56.992;23.912;2023-05-02T14:12:16;9.40;99.90
40153;DHT22;26371;56.992;23.912;2023-05-02T14:14:45;9.40;99.90
40153;DHT22;26371;56.992;23.912;2023-05-02T14:17:13;9.40;99.90
40153;DHT22;26371;56.992;23.912;2023-05-02T14:19:41;9.40;99.90
40153;DHT22;26371;56.992;23.912;2023-05-02T14:22:10;9.40;99.90
40153;DHT22;26371;56.992;23.912;2023-05-02T14:24:38;9.40;99.90
40153;DHT22;26371;56.992;23.912;2023-05-02T14:27:07;9.30;99.90
40153;DHT22;26371;56.992;23.912;2023-05-02T14:29:40;9.20;99.90
40153;DHT22;26371;56.992;23.912;2023-05-02T14:32:08;9.10;99.90
40153;DHT22;26371;56.992;23.912;2023-05-02T14:34:37;9.10;99.90
40153;DHT22;26371;56.992;23.912;2023-05-02T14:37:05;9.10;99.90
40153;DHT22;26371;56.992;23.912;2023-05-02T14:39:34;8.90;99.90
40153;DHT22;26371;56.992;23.912;2023-05-02T14:42:03;8.80;99.90
40153;DHT22;26371;56.992;23.912;2023-05-02T14:44:31;8.90;99.90
40153;DHT22;26371;56.992;23.912;2023-05-02T14:47:01;8.90;99.90
40153;DHT22;26371;56.992;23.912;2023-05-02T14:49:29;8.80;99.90
40153;DHT22;26371;56.992;23.912;2023-05-02T14:51:58;8.90;99.90
40153;DHT22;26371;56.992;23.912;2023-05-02T14:54:26;9.00;99.90
40153;DHT22;26371;56.992;23.912;2023-05-02T14:56:56;9.10;99.90
40153;DHT22;26371;56.992;23.912;2023-05-02T14:59:27;9.10;99.90
40153;DHT22;26371;56.992;23.912;2023-05-02T15:01:55;9.20;99.90
40153;DHT22;26371;56.992;23.912;2023-05-02T15:04:30;9.20;99.90
40153;DHT22;26371;56.992;23.912;2023-05-02T15:07:00;9.10;99.90
40153;DHT22;26371;56.992;23.912;2023-05-02T15:09:29;9.20;99.90
40153;DHT22;26371;56.992;23.912;2023-05-02T15:11:58;9.10;99.90
40153;DHT22;26371;56.992;23.912;2023-05-02T15:14:26;9.10;99.90
40153;DHT22;26371;56.992;23.912;2023-05-02T15:16:55;9.00;99.90
40153;DHT22;26371;56.992;23.912;2023-05-02T15:19:23;8.90;99.90
40153;DHT22;26371;56.992;23.912;2023-05-02T15:21:54;8.70;99.90
40153;DHT22;26371;56.992;23.912;2023-05-02T15:24:23;8.60;99.90
40153;DHT22;26371;56.992;23.912;2023-05-02T15:26:52;8.50;99.90
40153;DHT22;26371;56.992;23.912;2023-05-02T15:29:20;8.40;99.90
40153;DHT22;26371;56.992;23.912;2023-05-02T15:31:49;8.30;99.90
40153;DHT22;26371;56.992;23.912;2023-05-02T15:34:19;8.40;99.90
40153;DHT22;26371;56.992;23.912;2023-05-02T15:36:48;8.30;99.90
40153;DHT22;26371;56.992;23.912;2023-05-02T15:39:19;8.30;99.90
40153;DHT22;26371;56.992;23.912;2023-05-02T15:41:50;7.40;99.90
40153;DHT22;26371;56.992;23.912;2023-05-02T15:44:19;8.40;99.90
40153;DHT22;26371;56.992;23.912;2023-05-02T15:46:48;8.50;99.90
40153;DHT22;26371;56.992;23.912;2023-05-02T15:49:16;8.70;99.90
40153;DHT22;26371;56.992;23.912;2023-05-02T15:51:45;8.60;99.90
40153;DHT22;26371;56.992;23.912;2023-05-02T15:54:13;8.60;99.90
40153;DHT22;26371;56.992;23.912;2023-05-02T15:56:43;8.50;99.90
40153;DHT22;26371;56.992;23.912;2023-05-02T15:59:12;8.50;99.90
40153;DHT22;26371;56.992;23.912;2023-05-02T16:01:40;8.50;99.90
40153;DHT22;26371;56.992;23.912;2023-05-02T16:04:09;8.40;99.90
40153;DHT22;26371;56.992;23.912;2023-05-02T16:06:37;8.20;99.90
40153;DHT22;26371;56.992;23.912;2023-05-02T16:09:07;8.10;99.90
40153;DHT22;26371;56.992;23.912;2023-05-02T16:11:35;8.00;99.90
40153;DHT22;26371;56.992;23.912;2023-05-02T16:14:05;7.90;99.90
40153;DHT22;26371;56.992;23.912;2023-05-02T16:16:34;7.90;99.90